Time;durP1;ratioP1;P1;durP2;ratioP2;P2;SDS_P1;SDS_P2;PMS_P1;PMS_P2;Temp;Humidity;BMP_temperature;BMP_pressure;BME280_temperature;BME280_humidity;BME280_pressure;Samples;Min_cycle;Max_cycle;Signal;HPM_P1;HPM_P2
2021/12/14 00:01:14;;;;;;;17.83;13.40;;;10.00;99.90;;;;;;5053798;28;20253;-77
2021/12/14 00:03:46;;;;;;;17.60;13.57;;;10.00;99.90;;;;;;5054727;28;20306;-79
2021/12/14 00:06:25;;;;;;;16.15;14.45;;;9.90;99.90;;;;;;5049812;28;20325;-78
2021/12/14 00:08:56;;;;;;;18.27;15.25;;;9.80;99.90;;;;;;5054678;28;20176;-78
2021/12/14 00:11:53;;;;;;;19.83;14.93;;;9.80;99.90;;;;;;5053879;28;20231;-77
2021/12/14 00:15:03;;;;;;;19.70;15.27;;;9.80;99.90;;;;;;5041021;28;20216;-77
2021/12/14 00:17:50;;;;;;;17.45;13.52;;;9.80;99.90;;;;;;5053896;28;20337;-78
2021/12/14 00:20:23;;;;;;;16.30;13.95;;;9.70;99.90;;;;;;5054606;28;20319;-75
2021/12/14 00:25:40;;;;;;;18.10;14.02;;;9.80;99.90;;;;;;5055492;28;20203;-77
2021/12/14 00:28:11;;;;;;;17.80;14.55;;;9.80;99.90;;;;;;5054478;28;20227;-78
2021/12/14 00:30:39;;;;;;;16.08;13.90;;;9.80;99.90;;;;;;5052268;28;20327;-78
2021/12/14 00:33:08;;;;;;;21.08;14.40;;;9.80;99.90;;;;;;5053719;28;20211;-79
2021/12/14 00:35:36;;;;;;;17.80;15.85;;;9.80;99.90;;;;;;5053320;28;20291;-78
2021/12/14 00:38:05;;;;;;;18.05;14.38;;;9.80;99.90;;;;;;5053514;28;20289;-77
2021/12/14 00:40:35;;;;;;;19.45;14.40;;;9.80;99.90;;;;;;5052705;28;21417;-76
2021/12/14 00:43:03;;;;;;;18.23;13.88;;;9.70;99.90;;;;;;5053683;28;20299;-77
2021/12/14 00:45:32;;;;;;;20.40;15.05;;;9.70;99.90;;;;;;5053077;28;20202;-78
2021/12/14 00:48:00;;;;;;;17.25;13.50;;;9.70;99.90;;;;;;5053162;28;20640;-75
2021/12/14 00:50:31;;;;;;;16.15;13.63;;;9.70;99.90;;;;;;5052704;28;20293;-77
2021/12/14 00:53:00;;;;;;;16.42;13.50;;;9.70;99.90;;;;;;5052975;28;20204;-76
2021/12/14 00:55:33;;;;;;;18.52;12.95;;;9.60;99.90;;;;;;5051813;28;20191;-79
2021/12/14 00:58:00;;;;;;;23.63;15.57;;;9.70;99.90;;;;;;5052624;28;20686;-77
2021/12/14 01:00:32;;;;;;;19.60;15.98;;;9.60;99.90;;;;;;5051882;28;20223;-77
2021/12/14 01:03:00;;;;;;;18.35;14.60;;;9.70;99.90;;;;;;5052799;28;20302;-77
2021/12/14 01:05:32;;;;;;;22.20;13.98;;;9.60;99.90;;;;;;5053125;28;20285;-76
2021/12/14 01:08:02;;;;;;;16.27;14.05;;;9.60;99.90;;;;;;5053173;28;20567;-77
2021/12/14 01:10:35;;;;;;;25.38;15.07;;;9.60;99.90;;;;;;5052235;28;20222;-77
2021/12/14 01:13:06;;;;;;;17.90;14.70;;;9.60;99.90;;;;;;5052998;28;20242;-79
2021/12/14 01:15:51;;;;;;;16.33;13.63;;;9.60;99.90;;;;;;5052589;28;20196;-75
2021/12/14 01:18:31;;;;;;;18.80;13.95;;;9.50;99.90;;;;;;5049687;28;20201;-78
2021/12/14 01:21:08;;;;;;;15.35;13.00;;;9.50;99.90;;;;;;5033519;28;20716;-78
2021/12/14 01:23:38;;;;;;;18.20;14.27;;;9.50;99.90;;;;;;5034726;28;20225;-78
2021/12/14 01:26:09;;;;;;;16.13;13.25;;;9.50;99.90;;;;;;5053432;28;20268;-78
2021/12/14 01:28:38;;;;;;;17.92;13.15;;;9.50;99.90;;;;;;5052963;28;20195;-78
2021/12/14 01:31:12;;;;;;;16.80;13.98;;;9.50;99.90;;;;;;5051934;28;20230;-78
2021/12/14 01:33:42;;;;;;;17.75;13.93;;;9.50;99.90;;;;;;5052954;28;20286;-78
2021/12/14 01:36:23;;;;;;;18.27;13.05;;;9.60;99.90;;;;;;5044385;28;20201;-78
2021/12/14 01:39:10;;;;;;;18.48;14.40;;;9.60;99.90;;;;;;5053176;28;20218;-78
2021/12/14 01:41:39;;;;;;;15.60;12.80;;;9.60;99.90;;;;;;5053091;28;20223;-77
2021/12/14 01:44:07;;;;;;;15.75;13.93;;;9.60;99.90;;;;;;5052813;28;20612;-78
2021/12/14 01:46:39;;;;;;;16.95;12.25;;;9.60;99.90;;;;;;5053106;28;20204;-78
2021/12/14 01:49:08;;;;;;;17.05;13.50;;;9.60;99.90;;;;;;5048737;28;20286;-78
2021/12/14 01:51:40;;;;;;;17.88;13.45;;;9.60;99.90;;;;;;5051843;28;20306;-78
2021/12/14 01:54:11;;;;;;;14.93;12.30;;;9.60;99.90;;;;;;5052729;28;20609;-77
2021/12/14 01:56:39;;;;;;;13.82;11.90;;;9.60;99.90;;;;;;5052410;28;20212;-78
2021/12/14 01:59:09;;;;;;;22.10;12.88;;;9.60;99.90;;;;;;5053124;28;20247;-77
2021/12/14 02:01:43;;;;;;;20.20;11.68;;;9.60;99.90;;;;;;5051905;28;20298;-77
2021/12/14 02:04:13;;;;;;;18.00;13.05;;;9.60;99.90;;;;;;5052771;28;20223;-78
2021/12/14 02:06:40;;;;;;;16.92;12.40;;;9.60;99.90;;;;;;5053254;28;20196;-77
2021/12/14 02:09:12;;;;;;;18.05;12.75;;;9.50;99.90;;;;;;5054697;28;20254;-77
2021/12/14 02:11:43;;;;;;;16.30;12.35;;;9.50;99.90;;;;;;5058914;28;20288;-77
2021/12/14 02:14:10;;;;;;;14.68;13.00;;;9.50;99.90;;;;;;5056153;28;20208;-77
2021/12/14 02:16:38;;;;;;;17.58;13.35;;;9.50;99.90;;;;;;5056364;28;20238;-77
2021/12/14 02:19:10;;;;;;;20.55;13.57;;;9.50;99.90;;;;;;5056331;28;20284;-77
2021/12/14 02:21:40;;;;;;;17.67;11.73;;;9.50;99.90;;;;;;5055141;28;20307;-76
2021/12/14 02:24:09;;;;;;;13.43;11.90;;;9.60;99.90;;;;;;5055734;28;20715;-77
2021/12/14 02:26:39;;;;;;;13.57;11.38;;;9.60;99.90;;;;;;5055736;28;20192;-78
2021/12/14 02:29:09;;;;;;;16.25;12.23;;;9.50;99.90;;;;;;5056121;28;20228;-78
2021/12/14 02:31:39;;;;;;;15.23;11.85;;;9.50;99.90;;;;;;5054986;28;20221;-78
2021/12/14 02:34:08;;;;;;;14.27;11.23;;;9.50;99.90;;;;;;5055880;28;20294;-76
2021/12/14 02:36:40;;;;;;;11.82;10.63;;;9.50;99.90;;;;;;5055404;28;20206;-78
2021/12/14 02:39:22;;;;;;;15.10;11.70;;;9.50;99.90;;;;;;5055429;28;20767;-77
2021/12/14 02:41:54;;;;;;;15.63;10.60;;;9.50;99.90;;;;;;5055232;28;20226;-77
2021/12/14 02:44:22;;;;;;;17.40;12.98;;;9.50;99.90;;;;;;5054856;28;20658;-77
2021/12/14 02:46:52;;;;;;;14.13;11.30;;;9.40;99.90;;;;;;5055485;28;20720;-78
2021/12/14 02:49:25;;;;;;;16.25;11.32;;;9.30;99.90;;;;;;5055283;28;20211;-77
2021/12/14 02:51:57;;;;;;;16.55;11.18;;;9.40;99.90;;;;;;5055691;28;20235;-76
2021/12/14 02:54:27;;;;;;;15.60;10.80;;;9.30;99.90;;;;;;5053475;28;20370;-77
2021/12/14 02:56:57;;;;;;;17.45;12.02;;;9.30;99.90;;;;;;5055113;28;20200;-76
2021/12/14 02:59:28;;;;;;;12.10;10.13;;;9.40;99.90;;;;;;5054833;28;20672;-77
2021/12/14 03:02:03;;;;;;;11.82;10.57;;;9.40;99.90;;;;;;5054784;28;20765;-76
2021/12/14 03:04:30;;;;;;;12.48;11.15;;;9.30;99.90;;;;;;5054985;28;20699;-76
2021/12/14 03:07:02;;;;;;;13.45;11.48;;;9.40;99.90;;;;;;5055244;28;20210;-76
2021/12/14 03:09:39;;;;;;;14.10;10.50;;;9.40;99.90;;;;;;5054375;28;20253;-77
2021/12/14 03:12:10;;;;;;;13.93;10.77;;;9.40;99.90;;;;;;5050323;28;20204;-77
2021/12/14 03:14:39;;;;;;;15.73;10.43;;;9.40;99.90;;;;;;5054929;28;20235;-78
2021/12/14 03:17:06;;;;;;;16.67;12.35;;;9.30;99.90;;;;;;5054957;28;20202;-78
2021/12/14 03:19:33;;;;;;;13.02;11.23;;;9.30;99.90;;;;;;5054008;28;20199;-79
2021/12/14 03:22:22;;;;;;;13.80;10.20;;;9.30;99.90;;;;;;5053973;28;20357;-77
2021/12/14 03:24:49;;;;;;;13.13;10.52;;;9.30;99.90;;;;;;5054865;28;20314;-78
2021/12/14 03:27:16;;;;;;;13.05;10.52;;;9.30;99.90;;;;;;5055082;28;20566;-77
2021/12/14 03:29:46;;;;;;;10.90;9.80;;;9.30;99.90;;;;;;5054327;28;20227;-77
2021/12/14 03:32:16;;;;;;;13.15;10.05;;;9.30;99.90;;;;;;5054911;28;20236;-77
2021/12/14 03:34:43;;;;;;;14.52;11.35;;;9.30;99.90;;;;;;5054669;28;20206;-77
2021/12/14 03:37:15;;;;;;;12.75;10.32;;;9.30;99.90;;;;;;5055138;28;20259;-78
2021/12/14 03:39:47;;;;;;;15.20;11.30;;;9.30;99.90;;;;;;5054234;28;20282;-76
2021/12/14 03:42:21;;;;;;;12.85;10.57;;;9.20;99.90;;;;;;5055099;28;20283;-76
2021/12/14 03:44:51;;;;;;;14.57;11.15;;;9.20;99.90;;;;;;5054455;28;20215;-77
2021/12/14 03:47:22;;;;;;;11.02;9.93;;;9.30;99.90;;;;;;5054455;28;20195;-77
2021/12/14 03:49:53;;;;;;;12.75;10.82;;;9.30;99.90;;;;;;5053215;28;20206;-77
2021/12/14 03:52:26;;;;;;;15.60;10.05;;;9.30;99.90;;;;;;5054846;28;20207;-77
2021/12/14 03:54:56;;;;;;;14.90;11.20;;;9.20;99.90;;;;;;5037078;28;20206;-77
2021/12/14 03:57:27;;;;;;;14.13;11.02;;;9.30;99.90;;;;;;5055621;28;20231;-79
2021/12/14 03:59:54;;;;;;;13.40;10.80;;;9.30;99.90;;;;;;5054536;28;20203;-79
2021/12/14 04:02:22;;;;;;;13.48;11.00;;;9.30;99.90;;;;;;5054039;28;20204;-77
2021/12/14 04:05:00;;;;;;;12.52;10.68;;;9.30;99.90;;;;;;5054617;28;20247;-78
2021/12/14 04:07:29;;;;;;;12.85;10.35;;;9.20;99.90;;;;;;5054010;28;20195;-78
2021/12/14 04:09:56;;;;;;;12.60;9.70;;;9.30;99.90;;;;;;5052840;28;20287;-77
2021/12/14 04:12:24;;;;;;;17.88;10.23;;;9.30;99.90;;;;;;5053696;28;20680;-76
2021/12/14 04:14:55;;;;;;;14.18;10.93;;;9.30;99.90;;;;;;5053891;28;20240;-77
2021/12/14 04:17:32;;;;;;;13.27;10.13;;;9.40;99.90;;;;;;5053521;28;20239;-78
2021/12/14 04:20:01;;;;;;;13.43;10.60;;;9.40;99.90;;;;;;5051861;28;20783;-77
2021/12/14 04:22:33;;;;;;;14.25;10.60;;;9.30;99.90;;;;;;5053682;28;20235;-77
2021/12/14 04:25:06;;;;;;;14.68;10.68;;;9.30;99.90;;;;;;5053422;28;20234;-76
2021/12/14 04:27:34;;;;;;;12.75;9.23;;;9.30;99.90;;;;;;5053861;28;20209;-76
2021/12/14 04:30:07;;;;;;;11.70;9.88;;;9.40;99.90;;;;;;5052986;28;20701;-77
2021/12/14 04:32:35;;;;;;;19.40;11.13;;;9.30;99.90;;;;;;5038582;28;20215;-76
2021/12/14 04:35:02;;;;;;;16.88;11.25;;;9.30;99.90;;;;;;5053758;28;20203;-77
2021/12/14 04:37:30;;;;;;;17.23;9.95;;;9.30;99.90;;;;;;5053049;28;20311;-78
2021/12/14 04:40:14;;;;;;;14.55;10.20;;;9.30;99.90;;;;;;5052788;28;20682;-76
2021/12/14 04:53:51;;;;;;;11.68;9.95;;;9.30;99.90;;;;;;5052591;28;20273;-77
2021/12/14 04:56:22;;;;;;;13.38;11.00;;;9.30;99.90;;;;;;5053004;28;20358;-77
2021/12/14 04:58:55;;;;;;;12.43;10.40;;;9.30;99.90;;;;;;5053276;28;20234;-77
2021/12/14 05:01:22;;;;;;;12.13;9.43;;;9.30;99.90;;;;;;5052323;28;20564;-77
2021/12/14 05:03:56;;;;;;;14.77;12.32;;;9.30;99.90;;;;;;5053389;28;20215;-76
2021/12/14 05:06:43;;;;;;;15.10;11.18;;;9.40;99.90;;;;;;5032663;28;20206;-77
2021/12/14 05:09:23;;;;;;;17.35;12.45;;;9.40;99.90;;;;;;5053187;28;20207;-78
2021/12/14 05:12:01;;;;;;;19.33;12.50;;;9.30;99.90;;;;;;5045538;28;20219;-77
2021/12/14 05:14:32;;;;;;;14.75;12.18;;;9.30;99.90;;;;;;5052518;28;20756;-77
2021/12/14 05:17:03;;;;;;;17.13;11.45;;;9.30;99.90;;;;;;5052679;28;20218;-76
2021/12/14 05:19:33;;;;;;;15.85;12.70;;;9.40;99.90;;;;;;5051585;28;20211;-76
2021/12/14 05:22:08;;;;;;;18.50;13.18;;;9.40;99.90;;;;;;5052466;28;20681;-76
2021/12/14 05:24:39;;;;;;;16.00;12.48;;;9.40;99.90;;;;;;5046893;28;20619;-77
2021/12/14 05:27:11;;;;;;;19.10;12.80;;;9.40;99.90;;;;;;5053026;28;20231;-76
2021/12/14 05:29:41;;;;;;;13.48;11.90;;;9.40;99.90;;;;;;5052000;28;20199;-77
2021/12/14 05:32:15;;;;;;;16.50;11.32;;;9.40;99.90;;;;;;5053210;28;20207;-76
2021/12/14 05:34:46;;;;;;;17.00;12.68;;;9.40;99.90;;;;;;5052242;28;20192;-77
2021/12/14 05:37:20;;;;;;;17.42;13.07;;;9.30;99.90;;;;;;5053542;28;20210;-77
2021/12/14 05:39:54;;;;;;;19.75;14.25;;;9.30;99.90;;;;;;5052374;28;20241;-77
2021/12/14 05:45:12;;;;;;;17.23;13.02;;;9.20;99.90;;;;;;5055833;28;20222;-77
2021/12/14 05:47:45;;;;;;;17.13;12.63;;;9.30;99.90;;;;;;5058275;28;20286;-77
2021/12/14 05:50:19;;;;;;;22.67;14.82;;;9.20;99.90;;;;;;5056220;28;20215;-77
2021/12/14 05:52:49;;;;;;;18.90;12.68;;;9.30;99.90;;;;;;5049183;28;20216;-77
2021/12/14 05:55:23;;;;;;;15.90;12.65;;;9.30;99.90;;;;;;5056663;28;20196;-79
2021/12/14 05:57:55;;;;;;;19.20;13.98;;;9.20;99.90;;;;;;5038193;28;20252;-76
2021/12/14 06:00:34;;;;;;;19.45;12.75;;;9.20;99.90;;;;;;5055468;28;20219;-75
2021/12/14 06:03:01;;;;;;;18.98;14.18;;;9.20;99.90;;;;;;5056431;28;20234;-73
2021/12/14 06:05:34;;;;;;;18.42;12.43;;;9.20;99.90;;;;;;5057221;28;20571;-76
2021/12/14 06:08:01;;;;;;;19.10;12.95;;;9.10;99.90;;;;;;5056710;28;20191;-78
2021/12/14 06:10:29;;;;;;;18.00;13.30;;;9.20;99.90;;;;;;5056003;28;20314;-77
2021/12/14 06:12:57;;;;;;;18.98;13.18;;;9.20;99.90;;;;;;5056159;28;20246;-77
2021/12/14 06:15:28;;;;;;;24.58;14.57;;;9.10;99.90;;;;;;5053462;28;20721;-77
2021/12/14 06:17:55;;;;;;;18.13;13.43;;;9.20;99.90;;;;;;5056371;28;20203;-77
2021/12/14 06:20:26;;;;;;;19.45;12.93;;;9.20;99.90;;;;;;5054880;28;20243;-75
2021/12/14 06:22:54;;;;;;;17.77;12.82;;;9.10;99.90;;;;;;5055317;28;20282;-75
2021/12/14 06:25:25;;;;;;;18.77;14.40;;;9.10;99.90;;;;;;5055385;28;20258;-74
2021/12/14 06:27:55;;;;;;;21.33;12.73;;;9.20;99.90;;;;;;5055795;28;20281;-74
2021/12/14 06:30:27;;;;;;;21.92;14.15;;;9.20;99.90;;;;;;5055000;28;20224;-74
2021/12/14 06:32:56;;;;;;;18.33;13.95;;;9.10;99.90;;;;;;5055866;28;20200;-76
2021/12/14 06:35:35;;;;;;;17.83;13.90;;;9.20;99.90;;;;;;5055711;28;20701;-76
2021/12/14 06:38:26;;;;;;;19.50;13.43;;;9.10;99.90;;;;;;5054597;28;20207;-75
2021/12/14 06:40:58;;;;;;;18.85;13.85;;;9.20;99.90;;;;;;5042658;28;20629;-75
2021/12/14 06:43:28;;;;;;;17.20;12.80;;;9.20;99.90;;;;;;5054465;28;20208;-74
2021/12/14 06:45:59;;;;;;;20.00;14.10;;;9.20;99.90;;;;;;5054817;28;20262;-74
2021/12/14 06:48:30;;;;;;;19.98;14.40;;;9.20;99.90;;;;;;5048198;28;20196;-74
2021/12/14 06:51:01;;;;;;;26.40;14.55;;;9.30;99.90;;;;;;5053078;28;20310;-73
2021/12/14 06:53:29;;;;;;;25.23;15.38;;;9.30;99.90;;;;;;5052940;28;20286;-75
2021/12/14 06:55:58;;;;;;;17.73;13.65;;;9.20;99.90;;;;;;5054897;28;20283;-74
2021/12/14 06:58:28;;;;;;;20.55;15.10;;;9.20;99.90;;;;;;5055005;28;20295;-75
2021/12/14 07:01:05;;;;;;;19.33;14.35;;;9.20;99.90;;;;;;5054170;28;20302;-74
2021/12/14 07:03:41;;;;;;;20.23;14.20;;;9.20;99.90;;;;;;5036536;28;20293;-75
2021/12/14 07:06:09;;;;;;;27.95;15.80;;;9.20;99.90;;;;;;5055066;28;20321;-74
2021/12/14 07:08:36;;;;;;;21.20;13.63;;;9.20;99.90;;;;;;5054916;28;20238;-75
2021/12/14 07:11:04;;;;;;;23.80;17.58;;;9.20;99.90;;;;;;5054451;28;20223;-75
2021/12/14 07:13:37;;;;;;;23.30;14.95;;;9.20;99.90;;;;;;5054793;28;20226;-76
2021/12/14 07:16:19;;;;;;;19.73;15.25;;;9.20;99.90;;;;;;5054844;28;20249;-74
2021/12/14 07:18:48;;;;;;;20.25;15.27;;;9.20;99.90;;;;;;5038802;28;20196;-76
2021/12/14 07:21:33;;;;;;;22.25;16.00;;;9.20;99.90;;;;;;5054430;28;20216;-74
2021/12/14 07:24:00;;;;;;;22.30;15.07;;;9.20;99.90;;;;;;5054412;28;20202;-74
2021/12/14 07:26:27;;;;;;;22.52;16.85;;;9.20;99.90;;;;;;5054832;28;20227;-74
2021/12/14 07:28:59;;;;;;;23.88;17.15;;;9.30;99.90;;;;;;5054862;28;20236;-74
2021/12/14 07:31:27;;;;;;;28.90;17.67;;;9.30;99.90;;;;;;5054274;28;20297;-74
2021/12/14 07:33:57;;;;;;;23.60;17.38;;;9.20;99.90;;;;;;5054957;28;20291;-75
2021/12/14 07:36:27;;;;;;;26.35;17.13;;;9.20;99.90;;;;;;5054266;28;20283;-76
2021/12/14 07:38:59;;;;;;;20.17;15.63;;;9.20;99.90;;;;;;5054334;28;20203;-76
2021/12/14 07:41:29;;;;;;;21.58;16.55;;;9.20;99.90;;;;;;5053600;28;20222;-76
2021/12/14 07:44:00;;;;;;;22.95;18.17;;;9.20;99.90;;;;;;5054372;28;20204;-75
2021/12/14 07:46:37;;;;;;;24.80;18.75;;;9.20;99.90;;;;;;5053999;28;20233;-75
2021/12/14 07:49:07;;;;;;;25.77;18.65;;;9.20;99.90;;;;;;5036075;28;20206;-74
2021/12/14 07:51:38;;;;;;;25.90;19.30;;;9.20;99.90;;;;;;5049465;28;20261;-76
2021/12/14 07:54:08;;;;;;;26.85;19.60;;;9.20;99.90;;;;;;5048959;28;20202;-75
2021/12/14 07:56:41;;;;;;;25.20;18.60;;;9.30;99.90;;;;;;5049253;28;20199;-78
2021/12/14 07:59:19;;;;;;;28.73;20.05;;;9.30;99.90;;;;;;5031955;28;20602;-74
2021/12/14 08:01:48;;;;;;;24.80;19.38;;;9.30;99.90;;;;;;5049041;28;20645;-75
2021/12/14 08:04:15;;;;;;;28.05;19.02;;;9.30;99.90;;;;;;5053386;28;20231;-77
2021/12/14 08:06:50;;;;;;;25.02;18.40;;;9.30;99.90;;;;;;5053492;28;20199;-76
2021/12/14 08:09:44;;;;;;;31.70;20.08;;;9.40;99.90;;;;;;5035097;28;20230;-75
2021/12/14 08:12:12;;;;;;;28.42;19.48;;;9.40;99.90;;;;;;5049997;28;20210;-74
2021/12/14 08:14:41;;;;;;;29.30;21.52;;;9.30;99.90;;;;;;5049537;28;20216;-74
2021/12/14 08:17:11;;;;;;;29.17;20.23;;;9.30;99.90;;;;;;5053248;28;20263;-75
2021/12/14 08:19:40;;;;;;;30.88;21.60;;;9.30;99.90;;;;;;5052560;28;20211;-75
2021/12/14 08:22:12;;;;;;;33.45;22.13;;;9.40;99.90;;;;;;5052826;28;20632;-75
2021/12/14 08:24:40;;;;;;;30.02;20.20;;;9.30;99.90;;;;;;5053076;28;20216;-76
2021/12/14 08:27:09;;;;;;;32.55;21.63;;;9.30;99.90;;;;;;5053918;28;20208;-75
2021/12/14 08:29:38;;;;;;;28.98;20.17;;;9.30;99.90;;;;;;5053101;28;20614;-75
2021/12/14 08:32:12;;;;;;;26.55;20.27;;;9.50;99.90;;;;;;5052975;28;20207;-76
2021/12/14 08:34:44;;;;;;;32.10;21.25;;;9.50;99.90;;;;;;5032727;28;20208;-76
2021/12/14 08:37:15;;;;;;;28.70;21.13;;;9.50;99.90;;;;;;5053592;28;20746;-76
2021/12/14 08:39:47;;;;;;;27.73;20.30;;;9.60;99.90;;;;;;5051888;28;20764;-76
2021/12/14 08:42:21;;;;;;;34.00;23.70;;;9.60;99.90;;;;;;5050457;28;20614;-76
2021/12/14 08:44:54;;;;;;;35.38;25.25;;;9.60;99.90;;;;;;5046083;28;20246;-77
2021/12/14 08:47:28;;;;;;;29.73;21.67;;;9.70;99.90;;;;;;5053521;28;20320;-76
2021/12/14 08:49:57;;;;;;;30.08;20.90;;;9.60;99.90;;;;;;5052630;28;20683;-76
2021/12/14 08:52:25;;;;;;;39.10;24.35;;;9.50;99.90;;;;;;5053462;28;20267;-76
2021/12/14 08:54:52;;;;;;;35.08;24.05;;;9.50;99.90;;;;;;5051715;28;20678;-76
2021/12/14 08:57:23;;;;;;;33.47;23.42;;;9.40;99.90;;;;;;5052089;28;20666;-77
2021/12/14 08:59:53;;;;;;;32.58;23.98;;;9.50;99.90;;;;;;5052534;28;20246;-76
2021/12/14 09:02:23;;;;;;;40.35;25.90;;;9.40;99.90;;;;;;5049317;28;20278;-75
2021/12/14 09:04:54;;;;;;;33.28;23.38;;;9.50;99.90;;;;;;5053290;28;20211;-74
2021/12/14 09:07:26;;;;;;;39.72;25.55;;;9.50;99.90;;;;;;5052734;28;20200;-75
2021/12/14 09:09:57;;;;;;;42.53;27.33;;;9.50;99.90;;;;;;5051672;28;20287;-75
2021/12/14 09:12:27;;;;;;;35.42;25.25;;;9.50;99.90;;;;;;5050122;28;20211;-75
2021/12/14 09:14:57;;;;;;;35.65;25.30;;;9.50;99.90;;;;;;5051225;28;20196;-75
2021/12/14 09:17:26;;;;;;;34.75;24.80;;;9.50;99.90;;;;;;5052608;28;20600;-76
2021/12/14 09:19:57;;;;;;;41.42;25.73;;;9.50;99.90;;;;;;5051366;28;20283;-75
2021/12/14 09:22:32;;;;;;;37.65;24.52;;;9.50;99.90;;;;;;5043533;28;20188;-76
2021/12/14 09:25:00;;;;;;;38.72;26.27;;;9.60;99.90;;;;;;5046653;28;20229;-76
2021/12/14 09:27:31;;;;;;;38.55;25.10;;;9.60;99.90;;;;;;5052533;28;20200;-76
2021/12/14 09:29:59;;;;;;;43.60;27.17;;;9.60;99.90;;;;;;5043062;28;20286;-75
2021/12/14 09:32:29;;;;;;;38.50;29.27;;;9.60;99.90;;;;;;5050957;28;20203;-76
2021/12/14 09:34:57;;;;;;;38.05;25.65;;;9.60;99.90;;;;;;5046668;28;20204;-76
2021/12/14 09:37:26;;;;;;;37.95;27.95;;;9.60;99.90;;;;;;5051141;28;20642;-75
2021/12/14 09:39:58;;;;;;;35.65;24.25;;;9.60;99.90;;;;;;5045557;28;20248;-76
2021/12/14 09:42:30;;;;;;;39.50;29.08;;;9.50;99.90;;;;;;5049690;28;20640;-75
2021/12/14 09:45:00;;;;;;;40.17;27.67;;;9.50;99.90;;;;;;5052719;28;20203;-74
2021/12/14 09:47:31;;;;;;;39.50;29.17;;;9.50;99.90;;;;;;5052598;28;20231;-74
2021/12/14 09:50:02;;;;;;;39.45;25.25;;;9.50;99.90;;;;;;5049329;28;20219;-76
2021/12/14 09:52:33;;;;;;;47.20;29.73;;;9.50;99.90;;;;;;5047336;28;20243;-75
2021/12/14 09:55:03;;;;;;;42.28;31.45;;;9.50;99.90;;;;;;5048681;28;20282;-75
2021/12/14 09:57:33;;;;;;;43.72;30.85;;;9.50;99.90;;;;;;5046408;28;20227;-76
2021/12/14 10:00:09;;;;;;;40.50;27.83;;;9.50;99.90;;;;;;5051175;28;20231;-74
2021/12/14 10:02:40;;;;;;;46.53;30.20;;;9.50;99.90;;;;;;5051494;28;20207;-75
2021/12/14 10:05:13;;;;;;;42.35;29.58;;;9.50;99.90;;;;;;5051163;28;20603;-75
2021/12/14 10:07:40;;;;;;;45.95;30.52;;;9.50;99.90;;;;;;5044385;28;20196;-75
2021/12/14 10:10:14;;;;;;;49.25;31.48;;;9.60;99.90;;;;;;5051330;28;20310;-75
2021/12/14 10:12:51;;;;;;;50.13;29.58;;;9.60;99.90;;;;;;5052140;28;20305;-75
2021/12/14 10:15:24;;;;;;;58.10;34.53;;;9.60;99.90;;;;;;5050370;28;20207;-75
2021/12/14 10:17:55;;;;;;;46.15;32.63;;;9.60;99.90;;;;;;5035391;28;20196;-74
2021/12/14 10:20:29;;;;;;;52.15;32.95;;;9.70;99.90;;;;;;5050405;28;20291;-75
2021/12/14 10:22:57;;;;;;;53.90;32.20;;;9.70;99.90;;;;;;5051549;28;20290;-77
2021/12/14 10:25:26;;;;;;;46.85;29.13;;;9.70;99.90;;;;;;5052058;28;20283;-76
2021/12/14 10:27:54;;;;;;;49.38;33.38;;;9.70;99.90;;;;;;5051805;28;20655;-76
2021/12/14 10:30:25;;;;;;;47.22;29.27;;;9.80;99.90;;;;;;5043933;28;20232;-76
2021/12/14 10:32:54;;;;;;;45.78;29.60;;;9.70;99.90;;;;;;5054683;28;20200;-76
2021/12/14 10:35:26;;;;;;;47.83;32.22;;;9.70;99.90;;;;;;5044903;28;20201;-76
2021/12/14 10:37:58;;;;;;;50.25;32.97;;;9.70;99.90;;;;;;5055195;28;20207;-76
2021/12/14 10:43:15;;;;;;;45.22;30.48;;;9.80;99.90;;;;;;5052468;28;20535;-75
2021/12/14 10:45:48;;;;;;;51.78;32.58;;;9.90;99.90;;;;;;5055797;28;20697;-75
2021/12/14 10:48:18;;;;;;;50.08;34.10;;;9.90;99.90;;;;;;5055133;28;20195;-76
2021/12/14 10:50:49;;;;;;;50.88;33.33;;;9.90;99.90;;;;;;5055138;28;20247;-76
2021/12/14 10:53:19;;;;;;;54.50;32.95;;;9.90;99.90;;;;;;5055882;28;20295;-76
2021/12/14 10:55:50;;;;;;;46.95;32.90;;;9.90;99.90;;;;;;5055830;28;20721;-76
2021/12/14 10:58:20;;;;;;;50.70;33.72;;;9.80;99.90;;;;;;5048699;28;20196;-77
2021/12/14 11:00:50;;;;;;;60.95;34.70;;;10.00;99.90;;;;;;5054624;28;20283;-77
2021/12/14 11:03:22;;;;;;;50.15;31.70;;;10.00;99.90;;;;;;5055468;28;20291;-77
2021/12/14 11:05:53;;;;;;;50.83;35.97;;;10.00;99.90;;;;;;5048517;28;20216;-77
2021/12/14 11:08:37;;;;;;;53.15;33.40;;;9.90;99.90;;;;;;5054734;28;20663;-76
2021/12/14 11:11:07;;;;;;;55.70;35.15;;;10.00;99.90;;;;;;5050272;28;20220;-76
2021/12/14 11:13:44;;;;;;;58.83;35.42;;;9.90;99.90;;;;;;5054793;28;20226;-76
2021/12/14 11:16:19;;;;;;;52.83;35.63;;;9.80;99.90;;;;;;5055016;28;20283;-76
2021/12/14 11:18:49;;;;;;;52.53;34.72;;;9.90;99.90;;;;;;5036354;28;20195;-77
2021/12/14 11:21:23;;;;;;;62.47;36.60;;;9.90;99.90;;;;;;5054080;28;20242;-76
2021/12/14 11:23:54;;;;;;;61.78;37.70;;;9.90;99.90;;;;;;5054536;28;20203;-75
2021/12/14 11:26:26;;;;;;;60.70;39.05;;;10.00;99.90;;;;;;5054269;28;20219;-76
2021/12/14 11:28:56;;;;;;;66.70;39.55;;;10.00;99.90;;;;;;5055527;28;20283;-75
2021/12/14 11:31:27;;;;;;;56.75;36.88;;;10.00;99.90;;;;;;5054145;28;20320;-75
2021/12/14 11:33:59;;;;;;;56.97;35.00;;;9.90;99.90;;;;;;5054477;28;20287;-75
2021/12/14 11:36:32;;;;;;;55.80;35.88;;;9.90;99.90;;;;;;5054586;28;20224;-79
2021/12/14 11:39:06;;;;;;;56.45;37.05;;;10.00;99.90;;;;;;5054783;28;20250;-76
2021/12/14 11:41:40;;;;;;;54.97;34.30;;;10.00;99.90;;;;;;5053426;28;20554;-76
2021/12/14 11:44:13;;;;;;;57.10;35.08;;;10.10;99.90;;;;;;5053431;28;20205;-76
2021/12/14 11:46:59;;;;;;;55.28;36.65;;;10.00;99.90;;;;;;5054548;28;20318;-77
2021/12/14 11:49:45;;;;;;;55.60;34.53;;;10.10;99.90;;;;;;5036198;28;20199;-76
2021/12/14 11:52:12;;;;;;;69.75;39.25;;;10.10;99.90;;;;;;5053948;28;20388;-75
2021/12/14 11:54:42;;;;;;;55.20;34.45;;;10.00;99.90;;;;;;5053639;28;20195;-76
2021/12/14 11:57:10;;;;;;;59.50;37.78;;;10.10;99.90;;;;;;5053273;28;20279;-80
2021/12/14 11:59:38;;;;;;;57.58;35.70;;;10.10;99.90;;;;;;5053453;28;20612;-76
2021/12/14 12:02:06;;;;;;;56.20;37.58;;;10.10;99.90;;;;;;5053989;28;20659;-76
2021/12/14 12:04:37;;;;;;;62.65;36.80;;;10.00;99.90;;;;;;5053818;28;20204;-75
2021/12/14 12:09:56;;;;;;;61.42;37.25;;;10.00;99.90;;;;;;5049616;28;20310;-75
2021/12/14 12:12:26;;;;;;;92.82;54.63;;;9.90;99.90;;;;;;5054374;28;20657;-74
2021/12/14 12:14:55;;;;;;;79.20;46.50;;;10.00;99.90;;;;;;5053390;28;20234;-75
2021/12/14 12:17:32;;;;;;;60.85;39.08;;;10.00;99.90;;;;;;5053754;28;20315;-74
2021/12/14 12:20:16;;;;;;;60.83;36.30;;;10.00;99.90;;;;;;5034832;28;20235;-75
2021/12/14 12:22:46;;;;;;;60.97;35.70;;;10.00;99.90;;;;;;5035730;28;20249;-75
2021/12/14 12:25:17;;;;;;;55.03;35.55;;;10.10;99.90;;;;;;5053215;28;20648;-75
2021/12/14 12:27:46;;;;;;;62.38;38.10;;;10.10;99.90;;;;;;5050732;28;20234;-75
2021/12/14 12:30:39;;;;;;;66.68;37.47;;;10.10;99.90;;;;;;5052221;28;20277;-74
2021/12/14 12:33:13;;;;;;;60.33;37.05;;;10.10;99.90;;;;;;5048920;28;20201;-75
2021/12/14 12:35:45;;;;;;;59.95;37.25;;;10.00;99.90;;;;;;5034681;28;20216;-75
2021/12/14 12:38:29;;;;;;;60.75;35.65;;;10.00;99.90;;;;;;5053003;28;20738;-75
2021/12/14 12:41:02;;;;;;;63.08;37.30;;;10.00;99.90;;;;;;5051375;28;20220;-76
2021/12/14 12:43:34;;;;;;;60.78;35.70;;;10.00;99.90;;;;;;5040642;28;20296;-76
2021/12/14 12:46:10;;;;;;;67.68;37.90;;;10.00;99.90;;;;;;5052366;28;20747;-76
2021/12/14 12:48:58;;;;;;;65.70;34.58;;;10.00;99.90;;;;;;5052794;28;20558;-75
2021/12/14 12:51:57;;;;;;;57.70;34.63;;;10.10;99.90;;;;;;5049616;28;20242;-76
2021/12/14 12:54:33;;;;;;;61.15;32.42;;;10.00;99.90;;;;;;5050378;28;20203;-75
2021/12/14 12:57:17;;;;;;;69.28;38.92;;;10.00;99.90;;;;;;5052467;28;20191;-74
2021/12/14 12:59:49;;;;;;;70.47;36.45;;;10.00;99.90;;;;;;5034166;28;20192;-74
2021/12/14 13:02:21;;;;;;;73.65;38.13;;;10.00;99.90;;;;;;5049561;28;20210;-75
2021/12/14 13:04:52;;;;;;;68.50;37.53;;;10.10;99.90;;;;;;5052581;28;20220;-74
2021/12/14 13:07:30;;;;;;;72.40;40.80;;;10.10;99.90;;;;;;5052354;28;20255;-75
2021/12/14 13:10:12;;;;;;;69.75;38.33;;;10.10;99.90;;;;;;5051212;28;20606;-75
2021/12/14 13:12:44;;;;;;;71.57;40.83;;;10.00;99.90;;;;;;5052432;28;20222;-75
2021/12/14 13:15:42;;;;;;;67.47;36.30;;;10.10;99.90;;;;;;5052100;28;20287;-75
2021/12/14 13:18:27;;;;;;;67.97;40.08;;;10.10;99.90;;;;;;5052451;28;20291;-75
2021/12/14 13:20:59;;;;;;;72.30;39.75;;;10.20;99.90;;;;;;5045529;28;20580;-75
2021/12/14 13:23:49;;;;;;;76.57;39.38;;;10.20;99.90;;;;;;5050547;28;20638;-76